Hauptseite
METAR-TAF:

METAR-TAF

Flughäfen :

Kuujjuaq, Québec, Kanada

Breite: 58-06N, Länge: 068-25W, Höhe: 37 m

Beobachtung

Neuester Wetterbericht von vor 1 Stunde und 18 Minuten, um 21:00 UTC
Windstille
Temperatur -28°C
Luftfeuchtigkeit 75%
Luftdruck 1026 hPa
Sichtweite: 24.1 km
Leicht bewölkt in der Höhe von 200 ft
Leicht bewölkt in der Höhe von 25000 ft

METAR: CYVP 092100Z 00000KT 15SM FEW002 FEW250 M28/M31 A3031 RMK SF1CI1 SLP273

Zeit: 17:18 (22:18 UTC)

Prognose

Neuester Wetterbericht von vor 4 Stunden und 40 Minuten, um 17:38 UTC
Gültige Prognose vom 09 um 18 UTC bis 10 um 06 UTC
Wind 3 kt aus unterschiedlichen Richtungen
Sichtweite: 10 km
Himmel klar
Ab 10 um 0000 UTC
Wind 3 kt aus unterschiedlichen Richtungen
Sichtweite: 10 km
Aufgelockert bewölkt in der Höhe von 1500 ft

TAF: CYVP 091738Z 0918/1006 VRB03KT P6SM SKC FM100000 VRB03KT P6SM SCT015 RMK NXT FCST BY 100000Z

Wetterbeobachtungen und Prognosen von mehr als 4000 Flughäfen (METAR und TAF Bericht).

Die verfügbaren Stationen werden durch gelbe und rote Markierungen auf der Karte dargestellt.

Führen Sie die Maus auf sie, um den Namen der Station zu sehen.

Darauf klicken, um die Beobachtung von Wetterbeobachtungen und Prognosen zu sehen.

Um die Karte zu ändern : klicken Sie auf den grünen Tasten mit einem schwarzen Kreuz Zum Vergrößern, auf den grünen Button mit einem Gedankenstrich zu verkleinern, oder auf die grünen Pfeile für benachbarte Karten.


METAR-TAF: